sensor_id;sensor_type;location;lat;lon;timestamp;temperature;humidity
76759;DHT22;65701;45.588;5.186;2023-10-08T07:22:13;16.06;68.65
76759;DHT22;65701;45.588;5.186;2023-10-08T07:24:48;16.23;68.46
76759;DHT22;65701;45.588;5.186;2023-10-08T07:27:16;16.41;68.28
76759;DHT22;65701;45.588;5.186;2023-10-08T07:29:47;16.62;68.30
76759;DHT22;65701;45.588;5.186;2023-10-08T07:32:12;16.82;68.25
76759;DHT22;65701;45.588;5.186;2023-10-08T07:34:40;17.03;67.48
76759;DHT22;65701;45.588;5.186;2023-10-08T07:37:06;17.23;67.53
76759;DHT22;65701;45.588;5.186;2023-10-08T07:39:31;17.43;67.49
76759;DHT22;65701;45.588;5.186;2023-10-08T07:41:59;17.64;67.32
76759;DHT22;65701;45.588;5.186;2023-10-08T07:44:26;17.81;67.09
76759;DHT22;65701;45.588;5.186;2023-10-08T07:46:54;17.99;66.94
76759;DHT22;65701;45.588;5.186;2023-10-08T07:49:20;18.14;66.74
76759;DHT22;65701;45.588;5.186;2023-10-08T07:51:46;18.30;65.05
76759;DHT22;65701;45.588;5.186;2023-10-08T07:54:24;18.47;63.88
76759;DHT22;65701;45.588;5.186;2023-10-08T07:56:50;18.64;63.64
76759;DHT22;65701;45.588;5.186;2023-10-08T07:59:39;18.81;62.39
76759;DHT22;65701;45.588;5.186;2023-10-08T08:02:21;18.94;61.62
76759;DHT22;65701;45.588;5.186;2023-10-08T08:04:52;19.06;60.41
76759;DHT22;65701;45.588;5.186;2023-10-08T08:07:21;19.16;59.46
76759;DHT22;65701;45.588;5.186;2023-10-08T08:09:50;19.26;59.94
76759;DHT22;65701;45.588;5.186;2023-10-08T08:12:24;19.43;59.54
76759;DHT22;65701;45.588;5.186;2023-10-08T08:14:53;19.55;59.13
76759;DHT22;65701;45.588;5.186;2023-10-08T08:17:18;19.64;58.39
76759;DHT22;65701;45.588;5.186;2023-10-08T08:19:46;19.75;57.19
76759;DHT22;65701;45.588;5.186;2023-10-08T08:22:20;19.85;57.84
76759;DHT22;65701;45.588;5.186;2023-10-08T08:24:56;19.93;56.35
76759;DHT22;65701;45.588;5.186;2023-10-08T08:27:30;20.04;56.89
76759;DHT22;65701;45.588;5.186;2023-10-08T08:29:59;20.20;57.40
76759;DHT22;65701;45.588;5.186;2023-10-08T08:32:41;20.32;57.07
76759;DHT22;65701;45.588;5.186;2023-10-08T08:35:10;20.45;56.65
76759;DHT22;65701;45.588;5.186;2023-10-08T08:37:37;20.58;57.31
76759;DHT22;65701;45.588;5.186;2023-10-08T08:40:07;20.70;56.52
76759;DHT22;65701;45.588;5.186;2023-10-08T08:42:44;20.81;55.55
76759;DHT22;65701;45.588;5.186;2023-10-08T08:45:13;20.91;55.88
76759;DHT22;65701;45.588;5.186;2023-10-08T08:47:43;21.00;55.57
76759;DHT22;65701;45.588;5.186;2023-10-08T08:50:10;21.08;55.01
76759;DHT22;65701;45.588;5.186;2023-10-08T08:52:36;21.19;54.11
76759;DHT22;65701;45.588;5.186;2023-10-08T08:55:07;21.22;53.79
76759;DHT22;65701;45.588;5.186;2023-10-08T08:57:44;21.30;52.41
76759;DHT22;65701;45.588;5.186;2023-10-08T09:00:14;21.40;53.09
76759;DHT22;65701;45.588;5.186;2023-10-08T09:02:44;21.49;53.52
76759;DHT22;65701;45.588;5.186;2023-10-08T09:05:10;21.55;52.65
76759;DHT22;65701;45.588;5.186;2023-10-08T09:08:01;21.71;53.03
76759;DHT22;65701;45.588;5.186;2023-10-08T09:10:31;21.82;53.25
76759;DHT22;65701;45.588;5.186;2023-10-08T09:13:04;21.94;52.74
76759;DHT22;65701;45.588;5.186;2023-10-08T09:15:30;21.98;52.59
76759;DHT22;65701;45.588;5.186;2023-10-08T09:17:57;22.06;52.53
76759;DHT22;65701;45.588;5.186;2023-10-08T09:20:26;22.12;52.91
76759;DHT22;65701;45.588;5.186;2023-10-08T09:23:07;22.23;53.08
76759;DHT22;65701;45.588;5.186;2023-10-08T09:25:36;22.32;53.50
76759;DHT22;65701;45.588;5.186;2023-10-08T09:28:02;22.47;53.68
76759;DHT22;65701;45.588;5.186;2023-10-08T09:30:30;22.49;52.16
76759;DHT22;65701;45.588;5.186;2023-10-08T09:32:55;22.53;52.27
76759;DHT22;65701;45.588;5.186;2023-10-08T09:35:22;22.56;51.76
76759;DHT22;65701;45.588;5.186;2023-10-08T09:37:50;22.60;52.13
76759;DHT22;65701;45.588;5.186;2023-10-08T09:40:17;22.67;52.02
76759;DHT22;65701;45.588;5.186;2023-10-08T09:42:47;22.78;51.76
76759;DHT22;65701;45.588;5.186;2023-10-08T09:45:13;22.75;50.69
76759;DHT22;65701;45.588;5.186;2023-10-08T09:47:49;22.83;50.15
76759;DHT22;65701;45.588;5.186;2023-10-08T09:50:26;22.87;50.85
76759;DHT22;65701;45.588;5.186;2023-10-08T09:53:08;22.87;49.17
76759;DHT22;65701;45.588;5.186;2023-10-08T09:55:44;22.94;49.27
76759;DHT22;65701;45.588;5.186;2023-10-08T09:58:12;22.91;47.50
76759;DHT22;65701;45.588;5.186;2023-10-08T10:00:40;22.99;48.26
76759;DHT22;65701;45.588;5.186;2023-10-08T10:03:08;23.07;48.73
76759;DHT22;65701;45.588;5.186;2023-10-08T10:05:34;22.97;47.06
76759;DHT22;65701;45.588;5.186;2023-10-08T10:08:03;22.91;45.94
76759;DHT22;65701;45.588;5.186;2023-10-08T10:10:36;22.99;46.88
76759;DHT22;65701;45.588;5.186;2023-10-08T10:13:04;23.07;47.49
76759;DHT22;65701;45.588;5.186;2023-10-08T10:15:34;23.18;47.74
76759;DHT22;65701;45.588;5.186;2023-10-08T10:18:14;23.27;47.50
76759;DHT22;65701;45.588;5.186;2023-10-08T10:20:51;23.33;47.11
76759;DHT22;65701;45.588;5.186;2023-10-08T10:23:43;23.33;46.24
76759;DHT22;65701;45.588;5.186;2023-10-08T10:26:25;23.39;46.95
76759;DHT22;65701;45.588;5.186;2023-10-08T10:31:37;23.57;47.63
76759;DHT22;65701;45.588;5.186;2023-10-08T10:34:06;23.69;46.98
76759;DHT22;65701;45.588;5.186;2023-10-08T10:36:34;23.70;46.52
76759;DHT22;65701;45.588;5.186;2023-10-08T10:39:00;23.77;47.05
76759;DHT22;65701;45.588;5.186;2023-10-08T10:41:27;23.88;47.74
76759;DHT22;65701;45.588;5.186;2023-10-08T10:43:53;23.94;47.50
76759;DHT22;65701;45.588;5.186;2023-10-08T10:46:18;23.96;46.90
76759;DHT22;65701;45.588;5.186;2023-10-08T10:48:56;24.12;47.89
76759;DHT22;65701;45.588;5.186;2023-10-08T10:51:42;24.26;48.53
76759;DHT22;65701;45.588;5.186;2023-10-08T10:54:08;24.36;48.81
76759;DHT22;65701;45.588;5.186;2023-10-08T10:56:35;24.46;49.21
76759;DHT22;65701;45.588;5.186;2023-10-08T10:59:08;24.59;49.10
76759;DHT22;65701;45.588;5.186;2023-10-08T11:01:52;24.57;47.79
76759;DHT22;65701;45.588;5.186;2023-10-08T11:04:19;24.57;47.71
76759;DHT22;65701;45.588;5.186;2023-10-08T11:06:54;24.55;46.76
76759;DHT22;65701;45.588;5.186;2023-10-08T11:09:24;24.56;46.90
76759;DHT22;65701;45.588;5.186;2023-10-08T11:12:06;24.52;46.15
76759;DHT22;65701;45.588;5.186;2023-10-08T11:14:41;24.33;45.21
76759;DHT22;65701;45.588;5.186;2023-10-08T11:17:25;24.46;45.05
76759;DHT22;65701;45.588;5.186;2023-10-08T11:19:51;24.48;45.91
76759;DHT22;65701;45.588;5.186;2023-10-08T11:22:18;24.60;46.00
76759;DHT22;65701;45.588;5.186;2023-10-08T11:24:45;24.57;45.46
76759;DHT22;65701;45.588;5.186;2023-10-08T11:27:16;24.64;46.12
76759;DHT22;65701;45.588;5.186;2023-10-08T11:29:46;24.70;46.53
76759;DHT22;65701;45.588;5.186;2023-10-08T11:32:14;24.81;46.79
76759;DHT22;65701;45.588;5.186;2023-10-08T11:34:45;24.87;46.47
76759;DHT22;65701;45.588;5.186;2023-10-08T11:37:15;24.92;46.89
76759;DHT22;65701;45.588;5.186;2023-10-08T11:39:51;25.01;47.10
76759;DHT22;65701;45.588;5.186;2023-10-08T11:42:18;25.07;47.06
76759;DHT22;65701;45.588;5.186;2023-10-08T11:44:59;25.14;47.15
76759;DHT22;65701;45.588;5.186;2023-10-08T11:47:25;25.22;47.18
76759;DHT22;65701;45.588;5.186;2023-10-08T11:49:56;25.31;47.03
76759;DHT22;65701;45.588;5.186;2023-10-08T11:52:38;25.36;46.99
76759;DHT22;65701;45.588;5.186;2023-10-08T11:55:10;25.45;47.15
76759;DHT22;65701;45.588;5.186;2023-10-08T11:57:45;25.50;47.61
76759;DHT22;65701;45.588;5.186;2023-10-08T12:00:12;25.58;47.56
76759;DHT22;65701;45.588;5.186;2023-10-08T12:02:51;25.53;46.84
76759;DHT22;65701;45.588;5.186;2023-10-08T12:05:21;25.56;46.69
76759;DHT22;65701;45.588;5.186;2023-10-08T12:07:53;25.54;46.96
76759;DHT22;65701;45.588;5.186;2023-10-08T12:10:23;25.46;46.55
76759;DHT22;65701;45.588;5.186;2023-10-08T12:12:53;25.41;46.19
76759;DHT22;65701;45.588;5.186;2023-10-08T12:15:23;25.38;45.81
76759;DHT22;65701;45.588;5.186;2023-10-08T12:17:56;25.18;45.64
76759;DHT22;65701;45.588;5.186;2023-10-08T12:20:40;25.24;45.99
76759;DHT22;65701;45.588;5.186;2023-10-08T12:23:09;25.28;46.39
76759;DHT22;65701;45.588;5.186;2023-10-08T12:25:38;25.31;46.39
76759;DHT22;65701;45.588;5.186;2023-10-08T12:28:05;25.31;46.55
76759;DHT22;65701;45.588;5.186;2023-10-08T12:30:31;25.29;46.17
76759;DHT22;65701;45.588;5.186;2023-10-08T12:33:00;25.26;46.51
76759;DHT22;65701;45.588;5.186;2023-10-08T12:35:26;25.32;46.98
76759;DHT22;65701;45.588;5.186;2023-10-08T12:37:52;25.35;46.77
76759;DHT22;65701;45.588;5.186;2023-10-08T12:40:19;25.39;47.37
76759;DHT22;65701;45.588;5.186;2023-10-08T12:42:53;25.43;47.57
76759;DHT22;65701;45.588;5.186;2023-10-08T12:45:20;25.47;47.44
76759;DHT22;65701;45.588;5.186;2023-10-08T12:47:52;25.49;46.91
76759;DHT22;65701;45.588;5.186;2023-10-08T12:50:19;25.49;46.88
76759;DHT22;65701;45.588;5.186;2023-10-08T12:52:57;25.52;46.80
76759;DHT22;65701;45.588;5.186;2023-10-08T12:55:23;25.52;46.85
76759;DHT22;65701;45.588;5.186;2023-10-08T12:57:51;25.52;46.57
76759;DHT22;65701;45.588;5.186;2023-10-08T13:00:24;25.54;46.61
76759;DHT22;65701;45.588;5.186;2023-10-08T13:02:50;25.59;46.64
76759;DHT22;65701;45.588;5.186;2023-10-08T13:05:22;25.54;46.14
76759;DHT22;65701;45.588;5.186;2023-10-08T13:07:55;25.56;45.65
76759;DHT22;65701;45.588;5.186;2023-10-08T13:10:24;25.59;45.70
76759;DHT22;65701;45.588;5.186;2023-10-08T13:12:51;25.53;45.87
76759;DHT22;65701;45.588;5.186;2023-10-08T13:15:17;25.47;45.14
76759;DHT22;65701;45.588;5.186;2023-10-08T13:17:43;25.45;45.25
76759;DHT22;65701;45.588;5.186;2023-10-08T13:20:12;25.45;45.93
76759;DHT22;65701;45.588;5.186;2023-10-08T13:22:39;25.45;45.59
76759;DHT22;65701;45.588;5.186;2023-10-08T13:25:05;25.46;45.88
76759;DHT22;65701;45.588;5.186;2023-10-08T13:27:31;25.45;46.08
76759;DHT22;65701;45.588;5.186;2023-10-08T13:29:57;25.46;46.20
76759;DHT22;65701;45.588;5.186;2023-10-08T13:32:24;25.47;46.36
76759;DHT22;65701;45.588;5.186;2023-10-08T13:34:50;25.49;46.60
76759;DHT22;65701;45.588;5.186;2023-10-08T13:37:15;25.46;46.29
76759;DHT22;65701;45.588;5.186;2023-10-08T13:39:43;25.47;46.50
76759;DHT22;65701;45.588;5.186;2023-10-08T13:42:09;25.43;46.42
76759;DHT22;65701;45.588;5.186;2023-10-08T13:44:41;25.47;46.70
76759;DHT22;65701;45.588;5.186;2023-10-08T13:47:09;25.49;46.78
76759;DHT22;65701;45.588;5.186;2023-10-08T13:49:40;25.50;46.69
76759;DHT22;65701;45.588;5.186;2023-10-08T13:52:06;25.50;46.73
76759;DHT22;65701;45.588;5.186;2023-10-08T13:54:33;25.43;46.32
76759;DHT22;65701;45.588;5.186;2023-10-08T13:57:01;25.35;46.01
76759;DHT22;65701;45.588;5.186;2023-10-08T13:59:27;25.42;46.34
76759;DHT22;65701;45.588;5.186;2023-10-08T14:01:56;25.42;46.53
76759;DHT22;65701;45.588;5.186;2023-10-08T14:04:22;25.41;46.35
76759;DHT22;65701;45.588;5.186;2023-10-08T14:06:59;25.39;46.12
76759;DHT22;65701;45.588;5.186;2023-10-08T14:09:25;25.35;45.66
76759;DHT22;65701;45.588;5.186;2023-10-08T14:12:00;25.38;46.22
76759;DHT22;65701;45.588;5.186;2023-10-08T14:14:26;25.25;46.24
76759;DHT22;65701;45.588;5.186;2023-10-08T14:16:55;25.26;45.80
76759;DHT22;65701;45.588;5.186;2023-10-08T14:19:25;25.28;46.16
76759;DHT22;65701;45.588;5.186;2023-10-08T14:22:04;25.22;46.12
76759;DHT22;65701;45.588;5.186;2023-10-08T14:24:30;25.19;46.26
76759;DHT22;65701;45.588;5.186;2023-10-08T14:27:05;25.19;46.16
76759;DHT22;65701;45.588;5.186;2023-10-08T14:29:40;25.15;46.08
76759;DHT22;65701;45.588;5.186;2023-10-08T14:32:09;25.18;46.20
76759;DHT22;65701;45.588;5.186;2023-10-08T14:34:38;25.19;46.67
76759;DHT22;65701;45.588;5.186;2023-10-08T14:37:13;25.15;46.91
76759;DHT22;65701;45.588;5.186;2023-10-08T14:39:57;25.10;46.92
76759;DHT22;65701;45.588;5.186;2023-10-08T14:42:41;25.11;46.94
76759;DHT22;65701;45.588;5.186;2023-10-08T14:45:23;25.10;47.28
76759;DHT22;65701;45.588;5.186;2023-10-08T14:47:55;25.05;47.33
76759;DHT22;65701;45.588;5.186;2023-10-08T14:50:22;25.05;47.54
76759;DHT22;65701;45.588;5.186;2023-10-08T14:52:48;25.07;47.48
76759;DHT22;65701;45.588;5.186;2023-10-08T14:55:14;25.04;47.59
76759;DHT22;65701;45.588;5.186;2023-10-08T14:57:42;25.05;47.74
76759;DHT22;65701;45.588;5.186;2023-10-08T15:00:08;25.04;47.71
76759;DHT22;65701;45.588;5.186;2023-10-08T15:02:34;25.04;47.78
76759;DHT22;65701;45.588;5.186;2023-10-08T15:05:00;25.03;48.06
76759;DHT22;65701;45.588;5.186;2023-10-08T15:07:28;25.03;48.07
76759;DHT22;65701;45.588;5.186;2023-10-08T15:09:54;25.03;48.14
76759;DHT22;65701;45.588;5.186;2023-10-08T15:12:23;25.03;47.85
76759;DHT22;65701;45.588;5.186;2023-10-08T15:14:51;24.98;47.89
76759;DHT22;65701;45.588;5.186;2023-10-08T15:17:17;24.99;47.94
76759;DHT22;65701;45.588;5.186;2023-10-08T15:19:43;24.97;48.07
76759;DHT22;65701;45.588;5.186;2023-10-08T15:22:08;24.97;48.15
76759;DHT22;65701;45.588;5.186;2023-10-08T15:24:34;24.95;47.96
76759;DHT22;65701;45.588;5.186;2023-10-08T15:27:02;24.95;48.24
76759;DHT22;65701;45.588;5.186;2023-10-08T15:29:29;24.92;48.32
76759;DHT22;65701;45.588;5.186;2023-10-08T15:31:55;24.94;48.09
76759;DHT22;65701;45.588;5.186;2023-10-08T15:34:22;24.91;48.42
76759;DHT22;65701;45.588;5.186;2023-10-08T15:36:49;24.87;48.88
76759;DHT22;65701;45.588;5.186;2023-10-08T15:39:15;24.87;49.20
76759;DHT22;65701;45.588;5.186;2023-10-08T15:41:48;24.86;49.31
76759;DHT22;65701;45.588;5.186;2023-10-08T15:44:17;24.84;49.76
76759;DHT22;65701;45.588;5.186;2023-10-08T15:46:44;24.83;49.87
76759;DHT22;65701;45.588;5.186;2023-10-08T15:49:09;24.81;50.13
76759;DHT22;65701;45.588;5.186;2023-10-08T15:51:35;24.77;50.09
76759;DHT22;65701;45.588;5.186;2023-10-08T15:54:03;24.79;50.04
76759;DHT22;65701;45.588;5.186;2023-10-08T15:56:28;24.79;50.17
76759;DHT22;65701;45.588;5.186;2023-10-08T15:58:54;24.74;50.05
76759;DHT22;65701;45.588;5.186;2023-10-08T16:01:20;24.74;50.02
76759;DHT22;65701;45.588;5.186;2023-10-08T16:03:46;24.71;50.03
76759;DHT22;65701;45.588;5.186;2023-10-08T16:06:11;24.70;50.03
76759;DHT22;65701;45.588;5.186;2023-10-08T16:08:37;24.67;50.01
76759;DHT22;65701;45.588;5.186;2023-10-08T16:11:03;24.64;49.98
76759;DHT22;65701;45.588;5.186;2023-10-08T16:13:28;24.66;50.12
76759;DHT22;65701;45.588;5.186;2023-10-08T16:15:54;24.60;50.12
76759;DHT22;65701;45.588;5.186;2023-10-08T16:18:19;24.56;50.26
76759;DHT22;65701;45.588;5.186;2023-10-08T16:20:46;24.55;50.37
76759;DHT22;65701;45.588;5.186;2023-10-08T16:23:12;24.51;50.55
76759;DHT22;65701;45.588;5.186;2023-10-08T16:25:39;24.51;50.72
76759;DHT22;65701;45.588;5.186;2023-10-08T16:28:05;24.43;51.09
76759;DHT22;65701;45.588;5.186;2023-10-08T16:30:32;24.37;51.56
76759;DHT22;65701;45.588;5.186;2023-10-08T16:32:59;24.30;52.01
76759;DHT22;65701;45.588;5.186;2023-10-08T16:35:26;24.21;52.42
76759;DHT22;65701;45.588;5.186;2023-10-08T16:37:52;24.08;52.61
76759;DHT22;65701;45.588;5.186;2023-10-08T16:40:18;24.02;52.82
76759;DHT22;65701;45.588;5.186;2023-10-08T16:42:47;23.91;53.26
76759;DHT22;65701;45.588;5.186;2023-10-08T16:45:13;23.80;53.60
76759;DHT22;65701;45.588;5.186;2023-10-08T16:47:49;23.69;53.97
76759;DHT22;65701;45.588;5.186;2023-10-08T16:50:16;23.56;54.42
76759;DHT22;65701;45.588;5.186;2023-10-08T16:52:43;23.43;54.84
76759;DHT22;65701;45.588;5.186;2023-10-08T16:55:08;23.26;55.17
76759;DHT22;65701;45.588;5.186;2023-10-08T16:57:34;23.16;55.44
76759;DHT22;65701;45.588;5.186;2023-10-08T17:00:00;23.02;55.80
76759;DHT22;65701;45.588;5.186;2023-10-08T17:02:35;22.88;56.08
76759;DHT22;65701;45.588;5.186;2023-10-08T17:05:00;22.75;56.57
76759;DHT22;65701;45.588;5.186;2023-10-08T17:07:26;22.64;56.66
76759;DHT22;65701;45.588;5.186;2023-10-08T17:09:51;22.56;56.80
76759;DHT22;65701;45.588;5.186;2023-10-08T17:12:17;22.46;56.96
76759;DHT22;65701;45.588;5.186;2023-10-08T17:14:44;22.36;57.12
76759;DHT22;65701;45.588;5.186;2023-10-08T17:17:09;22.28;57.26
76759;DHT22;65701;45.588;5.186;2023-10-08T17:19:35;22.16;57.54
76759;DHT22;65701;45.588;5.186;2023-10-08T17:22:00;22.04;58.09
76759;DHT22;65701;45.588;5.186;2023-10-08T17:24:29;21.94;58.24
76759;DHT22;65701;45.588;5.186;2023-10-08T17:26:55;21.81;58.51
76759;DHT22;65701;45.588;5.186;2023-10-08T17:29:21;21.65;58.83
76759;DHT22;65701;45.588;5.186;2023-10-08T17:31:47;21.54;59.42
76759;DHT22;65701;45.588;5.186;2023-10-08T17:34:14;21.37;60.04
76759;DHT22;65701;45.588;5.186;2023-10-08T17:36:39;21.25;60.41
76759;DHT22;65701;45.588;5.186;2023-10-08T17:39:05;21.16;60.07
76759;DHT22;65701;45.588;5.186;2023-10-08T17:41:37;21.10;59.92
76759;DHT22;65701;45.588;5.186;2023-10-08T17:44:03;20.96;60.38
76759;DHT22;65701;45.588;5.186;2023-10-08T17:46:29;20.84;60.49
76759;DHT22;65701;45.588;5.186;2023-10-08T17:48:55;20.80;60.24
76759;DHT22;65701;45.588;5.186;2023-10-08T17:51:21;20.67;60.06
76759;DHT22;65701;45.588;5.186;2023-10-08T17:53:47;20.54;60.93
76759;DHT22;65701;45.588;5.186;2023-10-08T17:56:13;20.44;60.82
76759;DHT22;65701;45.588;5.186;2023-10-08T17:58:39;20.39;60.47
76759;DHT22;65701;45.588;5.186;2023-10-08T18:01:11;20.34;60.40
76759;DHT22;65701;45.588;5.186;2023-10-08T18:03:42;20.30;60.31
76759;DHT22;65701;45.588;5.186;2023-10-08T18:06:13;20.26;60.22
76759;DHT22;65701;45.588;5.186;2023-10-08T18:08:46;20.23;60.27
76759;DHT22;65701;45.588;5.186;2023-10-08T18:11:16;20.15;60.50
76759;DHT22;65701;45.588;5.186;2023-10-08T18:13:47;20.06;60.90
76759;DHT22;65701;45.588;5.186;2023-10-08T18:16:14;19.95;61.18
76759;DHT22;65701;45.588;5.186;2023-10-08T18:18:42;19.85;61.33
76759;DHT22;65701;45.588;5.186;2023-10-08T18:21:09;19.78;61.26
76759;DHT22;65701;45.588;5.186;2023-10-08T18:23:46;19.68;61.39
76759;DHT22;65701;45.588;5.186;2023-10-08T18:26:13;19.64;61.37
76759;DHT22;65701;45.588;5.186;2023-10-08T18:28:40;19.57;61.48
76759;DHT22;65701;45.588;5.186;2023-10-08T18:31:09;19.51;61.70
76759;DHT22;65701;45.588;5.186;2023-10-08T18:33:37;19.47;61.37
76759;DHT22;65701;45.588;5.186;2023-10-08T18:36:10;19.38;61.19
76759;DHT22;65701;45.588;5.186;2023-10-08T18:38:37;19.33;61.22
76759;DHT22;65701;45.588;5.186;2023-10-08T18:41:05;19.28;61.17
76759;DHT22;65701;45.588;5.186;2023-10-08T18:43:36;19.26;61.28
76759;DHT22;65701;45.588;5.186;2023-10-08T18:46:02;19.20;61.43
76759;DHT22;65701;45.588;5.186;2023-10-08T18:48:28;19.19;61.40
76759;DHT22;65701;45.588;5.186;2023-10-08T18:51:04;19.16;61.42
76759;DHT22;65701;45.588;5.186;2023-10-08T18:53:30;19.10;61.49
76759;DHT22;65701;45.588;5.186;2023-10-08T18:56:05;19.07;61.52
76759;DHT22;65701;45.588;5.186;2023-10-08T18:58:34;19.02;61.62
76759;DHT22;65701;45.588;5.186;2023-10-08T19:00:59;18.98;61.71
76759;DHT22;65701;45.588;5.186;2023-10-08T19:03:31;18.96;61.65
76759;DHT22;65701;45.588;5.186;2023-10-08T19:05:57;18.96;61.80
76759;DHT22;65701;45.588;5.186;2023-10-08T19:08:22;18.91;61.73
76759;DHT22;65701;45.588;5.186;2023-10-08T19:10:48;18.89;61.76
76759;DHT22;65701;45.588;5.186;2023-10-08T19:13:14;18.85;61.69
76759;DHT22;65701;45.588;5.186;2023-10-08T19:15:40;18.84;61.75
76759;DHT22;65701;45.588;5.186;2023-10-08T19:18:06;18.81;61.76
76759;DHT22;65701;45.588;5.186;2023-10-08T19:20:40;18.78;61.78
76759;DHT22;65701;45.588;5.186;2023-10-08T19:23:06;18.73;61.79
76759;DHT22;65701;45.588;5.186;2023-10-08T19:25:32;18.73;61.86
76759;DHT22;65701;45.588;5.186;2023-10-08T19:28:00;18.71;61.92
76759;DHT22;65701;45.588;5.186;2023-10-08T19:30:30;18.68;62.08
76759;DHT22;65701;45.588;5.186;2023-10-08T19:32:59;18.61;62.20
76759;DHT22;65701;45.588;5.186;2023-10-08T19:35:27;18.57;62.21
76759;DHT22;65701;45.588;5.186;2023-10-08T19:37:56;18.54;62.24
76759;DHT22;65701;45.588;5.186;2023-10-08T19:40:21;18.51;62.21
76759;DHT22;65701;45.588;5.186;2023-10-08T19:42:48;18.47;62.27
76759;DHT22;65701;45.588;5.186;2023-10-08T19:45:13;18.40;62.21
76759;DHT22;65701;45.588;5.186;2023-10-08T19:47:44;18.38;62.33
76759;DHT22;65701;45.588;5.186;2023-10-08T19:50:11;18.34;62.36
76759;DHT22;65701;45.588;5.186;2023-10-08T19:52:41;18.33;62.41
76759;DHT22;65701;45.588;5.186;2023-10-08T19:55:09;18.29;62.73
76759;DHT22;65701;45.588;5.186;2023-10-08T19:57:37;18.24;62.74
76759;DHT22;65701;45.588;5.186;2023-10-08T20:00:06;18.22;62.69
76759;DHT22;65701;45.588;5.186;2023-10-08T20:02:41;18.16;62.75
76759;DHT22;65701;45.588;5.186;2023-10-08T20:05:12;18.13;62.84
76759;DHT22;65701;45.588;5.186;2023-10-08T20:07:47;18.13;63.09
76759;DHT22;65701;45.588;5.186;2023-10-08T20:10:13;18.09;63.24
76759;DHT22;65701;45.588;5.186;2023-10-08T20:12:43;18.05;63.15
76759;DHT22;65701;45.588;5.186;2023-10-08T20:15:11;18.03;63.17
76759;DHT22;65701;45.588;5.186;2023-10-08T20:17:37;18.06;63.33
76759;DHT22;65701;45.588;5.186;2023-10-08T20:20:07;18.02;63.33
76759;DHT22;65701;45.588;5.186;2023-10-08T20:22:46;18.03;63.31
76759;DHT22;65701;45.588;5.186;2023-10-08T20:25:14;18.02;63.31
76759;DHT22;65701;45.588;5.186;2023-10-08T20:27:41;18.02;63.24
76759;DHT22;65701;45.588;5.186;2023-10-08T20:30:11;18.02;63.43
76759;DHT22;65701;45.588;5.186;2023-10-08T20:32:40;17.98;63.85
76759;DHT22;65701;45.588;5.186;2023-10-08T20:35:08;17.93;63.95
76759;DHT22;65701;45.588;5.186;2023-10-08T20:37:35;17.92;63.87
76759;DHT22;65701;45.588;5.186;2023-10-08T20:40:02;17.89;63.80
76759;DHT22;65701;45.588;5.186;2023-10-08T20:42:32;17.88;64.00
76759;DHT22;65701;45.588;5.186;2023-10-08T20:44:58;17.86;63.90
76759;DHT22;65701;45.588;5.186;2023-10-08T20:47:25;17.82;63.85
76759;DHT22;65701;45.588;5.186;2023-10-08T20:49:52;17.79;63.91
76759;DHT22;65701;45.588;5.186;2023-10-08T20:52:18;17.74;64.92
76759;DHT22;65701;45.588;5.186;2023-10-08T20:54:45;17.75;64.78
76759;DHT22;65701;45.588;5.186;2023-10-08T20:57:12;17.71;64.52
76759;DHT22;65701;45.588;5.186;2023-10-08T20:59:38;17.69;64.32
76759;DHT22;65701;45.588;5.186;2023-10-08T21:02:04;17.68;64.12
76759;DHT22;65701;45.588;5.186;2023-10-08T21:04:36;17.65;64.44
76759;DHT22;65701;45.588;5.186;2023-10-08T21:07:02;17.65;64.31
76759;DHT22;65701;45.588;5.186;2023-10-08T21:09:33;17.62;64.12
76759;DHT22;65701;45.588;5.186;2023-10-08T21:11:59;17.62;64.03
